Time;durP1;ratioP1;P1;durP2;ratioP2;P2;SDS_P1;SDS_P2;PMS_P1;PMS_P2;Temp;Humidity;BMP_temperature;BMP_pressure;BME280_temperature;BME280_humidity;BME280_pressure;Samples;Min_cycle;Max_cycle;Signal;HPM_P1;HPM_P2
2022/03/09 00:01:11;;;;;;;8.25;4.95;;;1.40;99.90;;;;;;5055040;28;20496;-72
2022/03/09 00:03:36;;;;;;;6.65;4.63;;;1.40;99.90;;;;;;5038178;28;20472;-72
2022/03/09 00:06:02;;;;;;;6.45;5.05;;;1.40;99.90;;;;;;5057333;28;20530;-72
2022/03/09 00:08:28;;;;;;;6.72;4.85;;;1.40;99.90;;;;;;5055414;28;20047;-72
2022/03/09 00:10:54;;;;;;;7.97;5.30;;;1.40;99.90;;;;;;5056051;28;20040;-71
2022/03/09 00:13:19;;;;;;;6.03;5.10;;;1.40;99.90;;;;;;5050785;28;20493;-73
2022/03/09 00:15:45;;;;;;;9.70;5.15;;;1.30;99.90;;;;;;5039606;28;20490;-73
2022/03/09 00:18:11;;;;;;;6.57;4.75;;;1.30;99.90;;;;;;5047158;28;20048;-72
2022/03/09 00:20:36;;;;;;;6.85;4.82;;;1.30;99.90;;;;;;5054445;28;20484;-71
2022/03/09 00:23:02;;;;;;;9.30;5.05;;;1.30;99.90;;;;;;5053934;28;20044;-73
2022/03/09 00:25:27;;;;;;;8.00;5.30;;;1.30;99.90;;;;;;5072263;28;20503;-73
2022/03/09 00:27:53;;;;;;;7.72;4.95;;;1.30;99.90;;;;;;5053819;28;20101;-73
2022/03/09 00:30:19;;;;;;;7.72;5.20;;;1.30;99.90;;;;;;5053304;28;20576;-73
2022/03/09 00:32:44;;;;;;;8.35;5.03;;;1.30;99.90;;;;;;5054184;28;20072;-72
2022/03/09 00:35:10;;;;;;;6.30;5.25;;;1.30;99.90;;;;;;5052988;28;20545;-73
2022/03/09 00:37:36;;;;;;;7.95;5.53;;;1.30;99.90;;;;;;5049023;28;20492;-73
2022/03/09 00:40:03;;;;;;;6.80;5.07;;;1.30;99.90;;;;;;5054597;28;20033;-73
2022/03/09 00:42:33;;;;;;;9.13;5.18;;;1.30;99.90;;;;;;5058921;28;20115;-72
2022/03/09 00:44:58;;;;;;;6.07;5.00;;;1.20;99.90;;;;;;5053975;28;20128;-73
2022/03/09 00:47:24;;;;;;;8.40;5.20;;;1.30;99.90;;;;;;5049698;28;20465;-73
2022/03/09 00:49:50;;;;;;;8.32;5.60;;;1.20;99.90;;;;;;5043525;28;20072;-73
2022/03/09 00:52:15;;;;;;;6.63;5.43;;;1.30;99.90;;;;;;5058170;28;20038;-73
2022/03/09 00:54:41;;;;;;;7.80;5.65;;;1.20;99.90;;;;;;5053474;28;20047;-73
2022/03/09 00:57:07;;;;;;;8.23;5.78;;;1.20;99.90;;;;;;5049874;28;20093;-73
2022/03/09 00:59:32;;;;;;;11.00;6.05;;;1.20;99.90;;;;;;5066222;28;20044;-73
2022/03/09 01:01:58;;;;;;;8.52;5.70;;;1.20;99.90;;;;;;5037429;28;20492;-73
2022/03/09 01:04:24;;;;;;;8.18;5.38;;;1.20;99.90;;;;;;5037901;28;20040;-73
2022/03/09 01:06:49;;;;;;;9.82;5.97;;;1.10;99.90;;;;;;5052366;28;20036;-72
2022/03/09 01:09:15;;;;;;;8.13;5.63;;;1.10;99.90;;;;;;5069368;28;20028;-73
2022/03/09 01:11:41;;;;;;;7.72;5.82;;;1.00;99.90;;;;;;5072074;28;20071;-73
2022/03/09 01:14:06;;;;;;;7.05;5.18;;;1.00;99.90;;;;;;5050663;28;20037;-72
2022/03/09 01:16:32;;;;;;;9.10;5.93;;;1.00;99.90;;;;;;5054230;28;20041;-73
2022/03/09 01:18:57;;;;;;;7.32;5.57;;;1.00;99.90;;;;;;5046424;28;20065;-71
2022/03/09 01:21:23;;;;;;;9.60;5.85;;;1.00;99.90;;;;;;5040185;28;20043;-73
2022/03/09 01:23:49;;;;;;;8.02;5.88;;;1.00;99.90;;;;;;5052808;28;20411;-71
2022/03/09 01:26:14;;;;;;;9.93;6.75;;;1.00;99.90;;;;;;5052205;28;20491;-73
2022/03/09 01:28:40;;;;;;;7.88;6.13;;;0.90;99.90;;;;;;5057069;28;20048;-73
2022/03/09 01:31:06;;;;;;;9.30;6.15;;;0.80;99.90;;;;;;5069066;28;20052;-73
2022/03/09 01:33:31;;;;;;;7.95;6.20;;;0.80;99.90;;;;;;5054958;28;20044;-73
2022/03/09 01:35:57;;;;;;;9.02;6.40;;;0.80;99.90;;;;;;5053248;28;20041;-73
2022/03/09 01:38:22;;;;;;;8.40;6.40;;;0.70;99.90;;;;;;5052349;28;20068;-71
2022/03/09 01:40:48;;;;;;;11.05;6.70;;;0.70;99.90;;;;;;5047551;28;20033;-72
2022/03/09 01:43:15;;;;;;;8.68;6.25;;;0.70;99.90;;;;;;5052323;28;20049;-73
2022/03/09 01:45:40;;;;;;;8.45;6.70;;;0.70;99.90;;;;;;5054676;28;21933;-72
2022/03/09 01:48:06;;;;;;;11.63;6.20;;;0.70;99.90;;;;;;5055874;28;20048;-73
2022/03/09 01:50:32;;;;;;;10.98;6.43;;;0.70;99.90;;;;;;5052636;28;20043;-73
2022/03/09 01:52:57;;;;;;;13.63;6.65;;;0.70;99.90;;;;;;5048693;28;20123;-73
2022/03/09 01:55:23;;;;;;;10.52;6.53;;;0.70;99.90;;;;;;5050353;28;20028;-73
2022/03/09 01:57:49;;;;;;;14.20;6.93;;;0.60;99.90;;;;;;5049415;28;20028;-72
2022/03/09 02:00:15;;;;;;;8.27;6.65;;;0.70;99.90;;;;;;5054176;28;20040;-73
2022/03/09 02:02:41;;;;;;;11.02;6.90;;;0.60;99.90;;;;;;5055921;28;20028;-73
2022/03/09 02:05:07;;;;;;;8.70;6.38;;;0.60;99.90;;;;;;5024132;28;20040;-73
2022/03/09 02:10:20;;;;;;;8.55;5.70;;;0.60;99.90;;;;;;5040424;28;20477;-71
2022/03/09 02:12:46;;;;;;;9.18;6.50;;;0.60;99.90;;;;;;5047214;28;20037;-71
2022/03/09 02:15:12;;;;;;;11.23;6.72;;;0.60;99.90;;;;;;5039529;28;20128;-71
2022/03/09 02:17:38;;;;;;;8.63;6.72;;;0.60;99.90;;;;;;5054384;28;20064;-71
2022/03/09 02:20:04;;;;;;;9.65;6.70;;;0.60;99.90;;;;;;5055756;28;20041;-75
2022/03/09 02:22:40;;;;;;;9.07;6.75;;;0.50;99.90;;;;;;5038746;28;20113;-73
2022/03/09 02:25:14;;;;;;;10.25;6.45;;;0.50;99.90;;;;;;5039916;28;20037;-72
2022/03/09 02:27:41;;;;;;;8.70;6.43;;;0.50;99.90;;;;;;5075210;28;20036;-71
2022/03/09 02:30:09;;;;;;;9.55;6.68;;;0.50;99.90;;;;;;5044081;28;20036;-71
2022/03/09 02:32:48;;;;;;;10.32;7.20;;;0.40;99.90;;;;;;5063592;28;20111;-71
2022/03/09 02:35:16;;;;;;;9.07;7.20;;;0.40;99.90;;;;;;5074857;28;20033;-72
2022/03/09 02:37:42;;;;;;;12.65;7.60;;;0.30;99.90;;;;;;5057234;28;20036;-72
2022/03/09 02:40:11;;;;;;;9.45;7.10;;;0.40;99.90;;;;;;5061517;28;20096;-72
2022/03/09 02:42:38;;;;;;;8.30;7.15;;;0.40;99.90;;;;;;5050233;28;20098;-72
2022/03/09 02:45:04;;;;;;;10.43;7.13;;;0.30;99.90;;;;;;5073603;28;20147;-72
2022/03/09 02:47:30;;;;;;;11.23;7.70;;;0.40;99.90;;;;;;5061402;28;20029;-73
2022/03/09 02:49:56;;;;;;;11.60;7.28;;;0.40;99.90;;;;;;5055661;28;20051;-71
2022/03/09 02:52:21;;;;;;;9.40;7.47;;;0.40;99.90;;;;;;5075990;28;20033;-71
2022/03/09 02:54:47;;;;;;;11.85;7.70;;;0.40;99.90;;;;;;5080399;28;20037;-71
2022/03/09 02:57:14;;;;;;;15.80;7.65;;;0.40;99.90;;;;;;5077970;28;20036;-72
2022/03/09 02:59:39;;;;;;;9.27;6.72;;;0.40;99.90;;;;;;5071340;28;20082;-73
2022/03/09 03:02:05;;;;;;;9.35;7.15;;;0.40;99.90;;;;;;5061762;28;20072;-71
2022/03/09 03:04:31;;;;;;;10.75;7.68;;;0.30;99.90;;;;;;5076871;28;20036;-71
2022/03/09 03:06:57;;;;;;;10.25;7.30;;;0.40;99.90;;;;;;5043513;28;20136;-72
2022/03/09 03:09:23;;;;;;;9.70;7.63;;;0.40;99.90;;;;;;5076890;28;20512;-72
2022/03/09 03:11:49;;;;;;;12.23;8.05;;;0.40;99.90;;;;;;5040102;28;20048;-72
2022/03/09 03:14:15;;;;;;;9.35;7.30;;;0.30;99.90;;;;;;5056940;28;20403;-75
2022/03/09 03:16:41;;;;;;;11.30;8.02;;;0.30;99.90;;;;;;5074213;28;20043;-73
2022/03/09 03:19:06;;;;;;;14.77;7.60;;;0.30;99.90;;;;;;5077495;28;20511;-72
2022/03/09 03:21:32;;;;;;;10.10;7.22;;;0.30;99.90;;;;;;5061034;28;20116;-71
2022/03/09 03:23:58;;;;;;;10.38;7.90;;;0.30;99.90;;;;;;5063231;28;20036;-71
2022/03/09 03:26:24;;;;;;;16.20;8.63;;;0.30;99.90;;;;;;5076608;28;20047;-71
2022/03/09 03:28:51;;;;;;;10.05;7.43;;;0.30;99.90;;;;;;5076563;28;20068;-72
2022/03/09 03:31:19;;;;;;;11.10;7.47;;;0.20;99.90;;;;;;5050886;28;20045;-73
2022/03/09 03:33:45;;;;;;;9.52;7.72;;;0.20;99.90;;;;;;5077263;28;20032;-71
2022/03/09 03:36:11;;;;;;;12.27;7.30;;;0.30;99.90;;;;;;5058962;28;20048;-71
2022/03/09 03:38:36;;;;;;;11.27;8.07;;;0.30;99.90;;;;;;5063939;28;20071;-73
2022/03/09 03:41:02;;;;;;;9.95;7.95;;;0.20;99.90;;;;;;5058280;28;20037;-71
2022/03/09 03:43:27;;;;;;;11.25;7.97;;;0.20;99.90;;;;;;5041763;28;20047;-73
2022/03/09 03:45:53;;;;;;;16.45;8.10;;;0.10;99.90;;;;;;5076793;28;20112;-71
2022/03/09 03:48:19;;;;;;;10.80;8.30;;;0.10;99.90;;;;;;5077376;28;20079;-71
2022/03/09 03:50:44;;;;;;;11.07;7.85;;;0.10;99.90;;;;;;5073221;28;20032;-72
2022/03/09 03:53:11;;;;;;;10.25;8.13;;;0.00;99.90;;;;;;5039785;28;20060;-71
2022/03/09 03:55:36;;;;;;;11.18;8.02;;;0.00;99.90;;;;;;5075869;28;20052;-72
2022/03/09 03:58:03;;;;;;;13.05;8.10;;;0.00;99.90;;;;;;5041922;28;20078;-73
2022/03/09 04:00:28;;;;;;;14.45;8.50;;;0.10;99.90;;;;;;5070424;28;20048;-71
2022/03/09 04:02:54;;;;;;;11.63;8.60;;;0.00;99.90;;;;;;5041968;28;20033;-71
2022/03/09 04:05:20;;;;;;;13.27;8.30;;;0.00;99.90;;;;;;5081728;28;20044;-71
2022/03/09 04:07:46;;;;;;;12.70;7.95;;;-0.10;99.90;;;;;;5059076;28;20036;-71
2022/03/09 04:10:13;;;;;;;11.82;7.90;;;-0.10;99.90;;;;;;5075524;28;20067;-71
2022/03/09 04:12:38;;;;;;;10.50;8.35;;;-0.10;99.90;;;;;;5068443;28;20087;-73
2022/03/09 04:15:05;;;;;;;11.43;8.73;;;-0.10;99.90;;;;;;5042146;28;20036;-72
2022/03/09 04:17:44;;;;;;;12.25;9.10;;;-0.20;99.90;;;;;;5050096;28;20052;-73
2022/03/09 04:20:14;;;;;;;11.60;8.75;;;-0.20;99.90;;;;;;5057266;28;20033;-71
2022/03/09 04:22:41;;;;;;;11.77;8.43;;;-0.20;99.90;;;;;;5075592;28;20111;-71
2022/03/09 04:25:08;;;;;;;12.95;8.88;;;-0.30;99.90;;;;;;5075754;28;20039;-71
2022/03/09 04:27:34;;;;;;;14.05;8.80;;;-0.40;99.90;;;;;;5042143;28;20142;-72
2022/03/09 04:30:00;;;;;;;15.60;9.27;;;-0.40;99.90;;;;;;5075571;28;20036;-71
2022/03/09 04:32:26;;;;;;;12.23;9.27;;;-0.40;99.90;;;;;;5075233;28;20107;-74
2022/03/09 04:34:52;;;;;;;12.85;8.68;;;-0.40;99.90;;;;;;5058547;28;20404;-71
2022/03/09 04:37:18;;;;;;;11.75;9.15;;;-0.30;99.90;;;;;;5058501;28;20039;-72
2022/03/09 04:39:44;;;;;;;16.63;9.45;;;-0.30;99.90;;;;;;5076868;28;20034;-71
2022/03/09 04:42:10;;;;;;;11.57;8.77;;;-0.30;99.90;;;;;;5028930;28;20445;-72
2022/03/09 04:44:35;;;;;;;12.25;9.43;;;-0.30;99.90;;;;;;5075451;28;20036;-71
2022/03/09 04:47:01;;;;;;;12.88;8.70;;;-0.30;99.90;;;;;;5047207;28;20043;-72
2022/03/09 04:49:27;;;;;;;15.75;9.65;;;-0.30;99.90;;;;;;5057463;28;20178;-71
2022/03/09 04:51:52;;;;;;;11.73;9.02;;;-0.20;99.90;;;;;;5033630;28;20045;-71
2022/03/09 04:54:18;;;;;;;14.45;8.38;;;-0.30;99.90;;;;;;5075033;28;20036;-71
2022/03/09 04:56:44;;;;;;;11.73;9.02;;;-0.30;99.90;;;;;;5075801;28;20504;-71
2022/03/09 04:59:10;;;;;;;14.15;8.85;;;-0.30;99.90;;;;;;5075132;28;20476;-73
2022/03/09 05:01:35;;;;;;;11.32;8.43;;;-0.30;99.90;;;;;;5080644;28;20563;-71
2022/03/09 05:04:01;;;;;;;12.63;9.13;;;-0.40;99.90;;;;;;5058408;28;20477;-72
2022/03/09 05:06:27;;;;;;;11.32;9.10;;;-0.40;99.90;;;;;;5075427;28;20569;-71
2022/03/09 05:08:52;;;;;;;13.20;9.00;;;-0.40;99.90;;;;;;5075723;28;20186;-71
2022/03/09 05:11:18;;;;;;;12.40;9.10;;;-0.40;99.90;;;;;;5079697;28;20040;-74
2022/03/09 05:13:44;;;;;;;13.15;9.48;;;-0.40;99.90;;;;;;5056425;28;20037;-71
2022/03/09 05:16:09;;;;;;;11.20;8.43;;;-0.40;99.90;;;;;;5073039;28;20400;-71
2022/03/09 05:18:37;;;;;;;17.75;9.40;;;-0.50;99.90;;;;;;5054852;28;20085;-71
2022/03/09 05:21:04;;;;;;;13.40;9.00;;;-0.40;99.90;;;;;;5073542;28;20426;-71
2022/03/09 05:23:30;;;;;;;13.57;9.52;;;-0.40;99.90;;;;;;5068109;28;20035;-71
2022/03/09 05:25:55;;;;;;;13.07;9.25;;;-0.50;99.90;;;;;;5075601;28;20488;-71
2022/03/09 05:28:21;;;;;;;13.00;9.48;;;-0.50;99.90;;;;;;5075766;28;20024;-72
2022/03/09 05:30:47;;;;;;;16.52;9.68;;;-0.50;99.90;;;;;;5079404;28;20036;-72
2022/03/09 05:33:13;;;;;;;13.18;9.15;;;-0.50;99.90;;;;;;5063176;28;20053;-72
2022/03/09 05:35:39;;;;;;;13.00;9.75;;;-0.50;99.90;;;;;;5066933;28;20035;-71
2022/03/09 05:38:05;;;;;;;16.55;10.68;;;-0.50;99.90;;;;;;5055621;28;20039;-72
2022/03/09 05:40:31;;;;;;;12.68;9.38;;;-0.50;99.90;;;;;;5056170;28;20040;-72
2022/03/09 05:42:56;;;;;;;14.80;9.60;;;-0.50;99.90;;;;;;5075254;28;20519;-71
2022/03/09 05:45:22;;;;;;;14.75;9.43;;;-0.50;99.90;;;;;;5074742;28;20040;-71
2022/03/09 05:47:48;;;;;;;15.95;9.45;;;-0.50;99.90;;;;;;5059962;28;20548;-71
2022/03/09 05:50:14;;;;;;;13.48;9.73;;;-0.60;99.90;;;;;;5056572;28;20066;-71
2022/03/09 05:52:39;;;;;;;13.85;9.60;;;-0.50;99.90;;;;;;5055191;28;20040;-71
2022/03/09 05:55:06;;;;;;;15.60;10.00;;;-0.60;99.90;;;;;;5075010;28;20029;-71
2022/03/09 05:57:31;;;;;;;15.35;9.73;;;-0.50;99.90;;;;;;5073840;28;20035;-71
2022/03/09 05:59:57;;;;;;;12.98;8.88;;;-0.50;99.90;;;;;;5068770;28;20488;-71
2022/03/09 06:02:23;;;;;;;13.02;9.82;;;-0.50;99.90;;;;;;5072804;28;20428;-72
2022/03/09 06:04:49;;;;;;;15.65;9.80;;;-0.60;99.90;;;;;;5078160;28;20471;-72
2022/03/09 06:07:15;;;;;;;13.75;9.63;;;-0.50;99.90;;;;;;5040118;28;20045;-71
2022/03/09 06:09:40;;;;;;;18.23;10.13;;;-0.50;99.90;;;;;;5057761;28;20067;-71
2022/03/09 06:12:06;;;;;;;12.82;9.35;;;-0.50;99.90;;;;;;5058796;28;20412;-71
2022/03/09 06:14:32;;;;;;;15.73;9.90;;;-0.50;99.90;;;;;;5071994;28;20412;-72
2022/03/09 06:16:58;;;;;;;16.50;9.88;;;-0.50;99.90;;;;;;5071285;28;20075;-73
2022/03/09 06:19:23;;;;;;;13.20;9.43;;;-0.50;99.90;;;;;;5057103;28;20104;-71
2022/03/09 06:21:49;;;;;;;12.73;9.48;;;-0.50;99.90;;;;;;5067226;28;20081;-71
2022/03/09 06:24:16;;;;;;;15.60;9.90;;;-0.50;99.90;;;;;;5074164;28;20043;-71
2022/03/09 06:26:43;;;;;;;16.10;9.98;;;-0.50;99.90;;;;;;5077517;28;20033;-71
2022/03/09 06:29:08;;;;;;;12.82;9.48;;;-0.60;99.90;;;;;;5043507;28;20040;-71
2022/03/09 06:31:34;;;;;;;18.30;9.70;;;-0.60;99.90;;;;;;5027437;28;20038;-72
2022/03/09 06:34:00;;;;;;;15.95;9.75;;;-0.50;99.90;;;;;;5076528;28;20459;-71
2022/03/09 06:36:26;;;;;;;12.50;9.55;;;-0.50;99.90;;;;;;5061602;28;20044;-71
2022/03/09 06:38:52;;;;;;;14.82;9.45;;;-0.60;99.90;;;;;;5059183;28;20683;-71
2022/03/09 06:41:18;;;;;;;12.05;9.18;;;-0.60;99.90;;;;;;5059479;28;20539;-70
2022/03/09 06:43:44;;;;;;;12.35;9.52;;;-0.60;99.90;;;;;;5058557;28;20028;-70
2022/03/09 06:46:10;;;;;;;12.88;9.60;;;-0.60;99.90;;;;;;5059112;28;20040;-71
2022/03/09 06:48:36;;;;;;;21.05;9.88;;;-0.60;99.90;;;;;;5060037;28;20044;-71
2022/03/09 06:51:02;;;;;;;14.32;9.75;;;-0.60;99.90;;;;;;5056713;28;20079;-71
2022/03/09 06:53:28;;;;;;;12.93;9.45;;;-0.60;99.90;;;;;;5057950;28;20087;-71
2022/03/09 06:55:53;;;;;;;15.48;9.77;;;-0.60;99.90;;;;;;5062425;28;20451;-70
2022/03/09 06:58:19;;;;;;;14.18;9.70;;;-0.60;99.90;;;;;;5042122;28;20480;-71
2022/03/09 07:00:45;;;;;;;14.45;9.77;;;-0.60;99.90;;;;;;5061197;28;20037;-71
2022/03/09 07:03:10;;;;;;;15.48;10.77;;;-0.60;99.90;;;;;;5059206;28;20461;-70
2022/03/09 07:05:36;;;;;;;16.67;10.45;;;-0.60;99.90;;;;;;5062181;28;20530;-71
2022/03/09 07:08:02;;;;;;;15.07;10.93;;;-0.50;99.90;;;;;;5053359;28;20485;-70
2022/03/09 07:10:28;;;;;;;17.65;11.00;;;-0.40;99.90;;;;;;5076191;28;20047;-70
2022/03/09 07:12:53;;;;;;;15.10;10.10;;;-0.40;99.90;;;;;;5054466;28;20043;-71
2022/03/09 07:15:19;;;;;;;14.65;10.10;;;-0.40;99.90;;;;;;5042462;28;20045;-72
2022/03/09 07:17:47;;;;;;;14.77;10.27;;;-0.30;99.90;;;;;;5039957;28;20088;-71
2022/03/09 07:20:13;;;;;;;15.20;9.90;;;-0.30;99.90;;;;;;5074730;28;20047;-70
2022/03/09 07:22:40;;;;;;;15.93;10.38;;;-0.10;99.90;;;;;;5042115;28;20127;-70
2022/03/09 07:25:07;;;;;;;15.75;10.27;;;-0.10;99.90;;;;;;5076445;28;20032;-71
2022/03/09 07:27:33;;;;;;;15.82;10.80;;;0.00;99.90;;;;;;5073877;28;20036;-70
2022/03/09 07:29:58;;;;;;;14.18;9.70;;;0.00;99.90;;;;;;5042317;28;20548;-70
2022/03/09 07:32:24;;;;;;;12.85;9.73;;;0.10;99.90;;;;;;5071183;28;20033;-71
2022/03/09 07:34:50;;;;;;;14.20;9.70;;;0.20;99.90;;;;;;5041211;28;20487;-72
2022/03/09 07:37:15;;;;;;;16.40;10.25;;;0.20;99.90;;;;;;5056804;28;20588;-71
2022/03/09 07:39:41;;;;;;;14.98;9.98;;;0.30;99.90;;;;;;5057045;28;20029;-71
2022/03/09 07:42:07;;;;;;;18.42;10.30;;;0.40;99.90;;;;;;5072298;28;20381;-71
2022/03/09 07:44:33;;;;;;;15.30;9.95;;;0.40;99.90;;;;;;5041865;28;20526;-71
2022/03/09 07:46:59;;;;;;;12.77;9.50;;;0.60;99.90;;;;;;5078600;28;20485;-71
2022/03/09 07:49:24;;;;;;;14.55;8.98;;;0.70;99.90;;;;;;5074337;28;20052;-73
2022/03/09 07:51:50;;;;;;;15.57;10.05;;;0.80;99.90;;;;;;5065156;28;20043;-73
2022/03/09 07:54:16;;;;;;;14.40;8.88;;;0.90;99.90;;;;;;5059978;28;20051;-74
2022/03/09 07:56:42;;;;;;;15.43;9.40;;;1.00;99.90;;;;;;5074005;28;20032;-71
2022/03/09 07:59:08;;;;;;;16.58;9.75;;;1.30;99.90;;;;;;5072936;28;20107;-71
2022/03/09 08:01:34;;;;;;;12.73;8.55;;;1.40;99.90;;;;;;5057854;28;20044;-72
2022/03/09 08:04:00;;;;;;;12.85;8.50;;;1.60;99.90;;;;;;5040267;28;20049;-71
2022/03/09 08:06:26;;;;;;;13.57;8.75;;;1.80;99.90;;;;;;5051410;28;20408;-72
2022/03/09 08:08:52;;;;;;;15.77;8.60;;;1.90;99.90;;;;;;5039726;28;20029;-71
2022/03/09 08:11:17;;;;;;;11.68;8.77;;;2.10;99.90;;;;;;5055734;28;20040;-71
2022/03/09 08:13:43;;;;;;;11.57;8.68;;;2.20;99.90;;;;;;5069083;28;20366;-71
2022/03/09 08:16:09;;;;;;;12.98;8.43;;;2.40;99.90;;;;;;5076331;28;20478;-73
2022/03/09 08:18:36;;;;;;;13.05;8.82;;;2.60;99.90;;;;;;5056937;28;20032;-71
2022/03/09 08:21:02;;;;;;;11.85;8.63;;;2.70;99.90;;;;;;5075171;28;20100;-71
2022/03/09 08:23:27;;;;;;;12.98;8.45;;;2.90;99.90;;;;;;5056695;28;20108;-72
2022/03/09 08:25:53;;;;;;;11.30;7.90;;;3.10;99.90;;;;;;5062757;28;20155;-74
2022/03/09 08:28:19;;;;;;;14.55;8.45;;;3.20;99.90;;;;;;5077747;28;20036;-72
2022/03/09 08:30:44;;;;;;;10.88;7.88;;;3.30;99.90;;;;;;5081033;28;20115;-72
2022/03/09 08:33:10;;;;;;;10.98;7.60;;;3.50;99.90;;;;;;5074786;28;20554;-72
2022/03/09 08:35:37;;;;;;;15.93;8.20;;;3.60;99.90;;;;;;5036231;28;20039;-72
2022/03/09 08:38:04;;;;;;;10.95;8.13;;;3.70;99.90;;;;;;5076938;28;20043;-71
2022/03/09 08:40:30;;;;;;;12.15;8.02;;;3.80;99.90;;;;;;5076336;28;20036;-72
2022/03/09 08:42:56;;;;;;;11.38;8.15;;;4.00;99.90;;;;;;5057454;28;20531;-74
2022/03/09 08:45:21;;;;;;;11.00;7.82;;;4.10;99.90;;;;;;5058014;28;20041;-72
2022/03/09 08:47:47;;;;;;;11.13;7.45;;;4.20;99.90;;;;;;5041257;28;20043;-71
2022/03/09 08:50:13;;;;;;;13.23;8.15;;;4.40;99.90;;;;;;5075735;28;20032;-71
2022/03/09 08:52:38;;;;;;;10.82;7.93;;;4.50;99.90;;;;;;5040143;28;20119;-71
2022/03/09 08:55:05;;;;;;;13.00;7.78;;;4.60;99.60;;;;;;5075887;28;20403;-71
2022/03/09 08:57:31;;;;;;;10.75;7.75;;;4.70;99.50;;;;;;5060537;28;20032;-71
2022/03/09 09:00:03;;;;;;;12.95;8.20;;;4.90;99.00;;;;;;5056638;28;20075;-71
2022/03/09 09:02:30;;;;;;;11.93;7.80;;;5.00;97.50;;;;;;5053632;28;20036;-74
2022/03/09 09:04:56;;;;;;;11.20;7.10;;;5.20;95.80;;;;;;5055290;28;20087;-71
2022/03/09 09:07:22;;;;;;;9.80;7.53;;;5.30;94.70;;;;;;5042728;28;20040;-71
2022/03/09 09:09:48;;;;;;;11.15;7.85;;;5.50;90.60;;;;;;5075494;28;20089;-72
2022/03/09 09:12:14;;;;;;;13.70;7.72;;;5.70;88.20;;;;;;5082167;28;20032;-72
2022/03/09 09:14:39;;;;;;;9.93;6.80;;;5.80;87.70;;;;;;5081979;28;20052;-72
2022/03/09 09:17:05;;;;;;;9.13;6.97;;;6.00;85.70;;;;;;5034976;28;20042;-72
2022/03/09 09:19:31;;;;;;;9.60;7.50;;;6.10;81.50;;;;;;5043475;28;20089;-73
2022/03/09 09:21:57;;;;;;;10.23;7.35;;;6.20;78.80;;;;;;5059766;28;20059;-72
2022/03/09 09:24:23;;;;;;;12.10;7.50;;;6.40;77.10;;;;;;5073980;28;20040;-73
2022/03/09 09:26:49;;;;;;;10.23;7.65;;;6.40;74.10;;;;;;5063729;28;20060;-73
2022/03/09 09:29:15;;;;;;;9.50;6.70;;;6.60;76.20;;;;;;5051169;28;20447;-71
2022/03/09 09:31:41;;;;;;;9.82;7.20;;;6.70;76.10;;;;;;5039139;28;20068;-72
2022/03/09 09:34:08;;;;;;;8.43;7.05;;;6.70;76.50;;;;;;5039289;28;20083;-72
2022/03/09 09:36:35;;;;;;;10.98;7.22;;;6.90;72.60;;;;;;5052575;28;20034;-72
2022/03/09 09:39:01;;;;;;;10.02;7.60;;;7.00;71.40;;;;;;5055989;28;20721;-71
2022/03/09 09:41:28;;;;;;;9.35;6.80;;;7.10;70.10;;;;;;5048564;28;20117;-71
2022/03/09 09:43:53;;;;;;;8.70;7.18;;;7.20;70.80;;;;;;5056053;28;20193;-72
2022/03/09 09:46:19;;;;;;;9.82;7.15;;;7.30;69.00;;;;;;5055509;28;20560;-73
2022/03/09 09:48:46;;;;;;;9.32;7.15;;;7.40;70.50;;;;;;5060969;28;20028;-74
2022/03/09 09:51:13;;;;;;;9.23;7.38;;;7.60;66.90;;;;;;5055620;28;20043;-72
2022/03/09 09:53:43;;;;;;;11.80;7.35;;;7.60;67.20;;;;;;5039034;28;20039;-72
2022/03/09 09:56:09;;;;;;;15.20;7.50;;;7.70;65.60;;;;;;5073279;28;20050;-72
2022/03/09 09:58:37;;;;;;;10.73;7.28;;;7.80;64.10;;;;;;5074076;28;20039;-71
2022/03/09 10:01:03;;;;;;;11.23;7.93;;;8.00;65.30;;;;;;5038215;28;20040;-72
2022/03/09 10:03:29;;;;;;;8.95;6.75;;;8.10;66.60;;;;;;5076435;28;20040;-72
2022/03/09 10:05:55;;;;;;;12.32;7.30;;;8.20;63.30;;;;;;5038342;28;20086;-73
2022/03/09 10:08:21;;;;;;;10.13;7.70;;;8.30;64.10;;;;;;5071157;28;20040;-72
2022/03/09 10:10:56;;;;;;;9.75;6.47;;;8.40;62.60;;;;;;5069830;28;20515;-72
2022/03/09 10:13:29;;;;;;;9.32;7.25;;;8.60;62.10;;;;;;5055352;28;20492;-73
2022/03/09 10:16:07;;;;;;;12.35;7.38;;;8.70;61.60;;;;;;5054233;28;20028;-72
2022/03/09 10:18:33;;;;;;;12.50;7.68;;;8.70;61.70;;;;;;5050993;28;20043;-72
2022/03/09 10:21:14;;;;;;;11.10;7.95;;;8.80;59.50;;;;;;5051776;28;20064;-72
2022/03/09 10:23:51;;;;;;;8.30;6.90;;;8.90;57.80;;;;;;5051439;28;20443;-73
2022/03/09 10:26:17;;;;;;;12.52;7.20;;;9.00;58.60;;;;;;5053890;28;20036;-73
2022/03/09 10:29:01;;;;;;;13.50;8.40;;;9.00;58.40;;;;;;5066083;28;20442;-72
2022/03/09 10:31:37;;;;;;;10.68;7.45;;;9.10;54.50;;;;;;5050341;28;20090;-72
2022/03/09 10:34:24;;;;;;;10.80;7.93;;;9.20;55.70;;;;;;5044671;28;20056;-72
2022/03/09 10:37:04;;;;;;;9.30;7.70;;;9.30;55.90;;;;;;5050434;28;20129;-73
2022/03/09 10:39:36;;;;;;;10.50;7.75;;;9.50;55.10;;;;;;5059593;28;20488;-73
2022/03/09 10:42:03;;;;;;;9.20;7.10;;;9.60;56.60;;;;;;5048114;28;20090;-72
2022/03/09 10:44:43;;;;;;;10.15;7.63;;;9.80;55.50;;;;;;5054086;28;20052;-73
2022/03/09 10:47:09;;;;;;;11.50;7.60;;;9.90;55.60;;;;;;5054290;28;20060;-72
2022/03/09 10:49:36;;;;;;;10.57;7.93;;;10.00;54.10;;;;;;5073425;28;20503;-73
2022/03/09 10:52:02;;;;;;;9.57;7.65;;;10.20;55.80;;;;;;5054550;28;20127;-73
2022/03/09 10:54:32;;;;;;;10.57;7.65;;;10.40;54.80;;;;;;5039511;28;20546;-73
2022/03/09 10:57:16;;;;;;;9.57;7.60;;;10.60;54.60;;;;;;5035103;28;20433;-74
2022/03/09 10:59:53;;;;;;;10.18;7.53;;;10.80;54.80;;;;;;5048350;28;20072;-73
2022/03/09 11:02:21;;;;;;;11.50;7.95;;;11.00;55.20;;;;;;5057356;28;20032;-73
2022/03/09 11:05:09;;;;;;;9.50;8.05;;;11.30;54.30;;;;;;5056834;28;20435;-74
2022/03/09 11:07:36;;;;;;;13.88;8.00;;;11.50;53.70;;;;;;5061542;28;20044;-73
2022/03/09 11:10:04;;;;;;;12.75;7.85;;;11.60;52.40;;;;;;5030949;28;20116;-74
2022/03/09 11:12:30;;;;;;;11.35;8.15;;;11.80;53.30;;;;;;5024259;28;20038;-74
2022/03/09 11:14:57;;;;;;;11.65;7.95;;;12.00;52.50;;;;;;5058406;28;20032;-72
2022/03/09 11:17:23;;;;;;;10.55;7.43;;;12.20;50.30;;;;;;5052675;28;20123;-74
2022/03/09 11:19:49;;;;;;;10.23;7.50;;;12.30;51.30;;;;;;5055844;28;20441;-73
2022/03/09 11:22:15;;;;;;;9.20;8.02;;;12.60;50.00;;;;;;5056945;28;20060;-72
2022/03/09 11:24:41;;;;;;;12.43;8.27;;;12.80;49.90;;;;;;5056461;28;20480;-77
2022/03/09 11:27:08;;;;;;;14.18;7.50;;;12.90;49.00;;;;;;5057288;28;20183;-73
2022/03/09 11:29:36;;;;;;;8.98;7.57;;;13.10;49.50;;;;;;5074987;28;20051;-74
2022/03/09 11:32:07;;;;;;;11.43;8.32;;;13.30;48.00;;;;;;5051293;28;20041;-73
2022/03/09 11:34:46;;;;;;;9.77;7.75;;;13.60;48.60;;;;;;5055897;28;20370;-74
2022/03/09 11:37:14;;;;;;;9.85;7.80;;;13.70;47.50;;;;;;5054522;28;20029;-74
2022/03/09 11:40:06;;;;;;;11.55;7.63;;;13.80;48.40;;;;;;5070072;28;20446;-72
2022/03/09 11:42:34;;;;;;;10.40;7.68;;;14.00;46.60;;;;;;5064056;28;20094;-73
2022/03/09 11:45:20;;;;;;;12.50;7.80;;;14.00;46.30;;;;;;5035402;28;20078;-72
2022/03/09 11:48:18;;;;;;;9.27;7.80;;;14.20;45.20;;;;;;5054658;28;20063;-73
2022/03/09 11:50:46;;;;;;;10.90;7.88;;;14.30;45.40;;;;;;5051658;28;20052;-72
2022/03/09 11:53:13;;;;;;;11.50;8.10;;;14.40;44.70;;;;;;5052918;28;20051;-72
2022/03/09 11:55:39;;;;;;;9.75;7.90;;;14.60;44.60;;;;;;5055971;28;22251;-72
2022/03/09 11:58:13;;;;;;;9.57;7.70;;;14.70;43.20;;;;;;5052129;28;20040;-73
2022/03/09 12:01:00;;;;;;;9.00;7.75;;;14.60;44.50;;;;;;5054247;28;20424;-73
2022/03/09 12:03:36;;;;;;;11.25;7.65;;;14.80;44.40;;;;;;5056068;28;20056;-72
2022/03/09 12:06:02;;;;;;;9.57;7.47;;;15.00;45.10;;;;;;5059440;28;20377;-73
2022/03/09 12:08:44;;;;;;;12.35;8.35;;;15.20;43.20;;;;;;5054367;28;20036;-72
2022/03/09 12:11:11;;;;;;;;;;;15.20;42.00;;;;;;5061248;28;20172;-72
2022/03/09 12:13:46;;;;;;;9.40;8.02;;;15.20;44.60;;;;;;5051603;28;19936;-73
2022/03/09 12:16:17;;;;;;;11.75;8.02;;;15.30;43.60;;;;;;5052316;28;20397;-74
2022/03/09 12:19:01;;;;;;;9.27;8.00;;;15.50;44.00;;;;;;5077480;28;20512;-72
2022/03/09 12:21:26;;;;;;;8.75;7.85;;;15.60;43.50;;;;;;5060301;28;20389;-74
2022/03/09 12:24:04;;;;;;;9.77;8.35;;;15.70;43.00;;;;;;5047929;28;20044;-73
2022/03/09 12:26:44;;;;;;;10.45;7.80;;;15.80;41.10;;;;;;5053799;28;20377;-74
2022/03/09 12:29:23;;;;;;;9.55;7.90;;;15.80;42.40;;;;;;5058373;28;20387;-74
2022/03/09 12:32:02;;;;;;;13.40;8.07;;;15.70;43.60;;;;;;5068062;28;20552;-72
2022/03/09 12:34:30;;;;;;;10.90;8.07;;;15.80;43.20;;;;;;5049253;28;20071;-73
2022/03/09 12:36:56;;;;;;;11.93;7.93;;;16.10;43.90;;;;;;5054364;28;20036;-73
2022/03/09 12:39:22;;;;;;;13.05;8.45;;;16.20;42.50;;;;;;5074729;28;20705;-72
2022/03/09 12:41:53;;;;;;;12.90;7.80;;;16.30;41.10;;;;;;5039423;28;20037;-73
2022/03/09 12:44:22;;;;;;;10.98;7.70;;;16.20;41.20;;;;;;5039167;28;20049;-72
2022/03/09 12:46:51;;;;;;;8.93;7.95;;;16.40;39.50;;;;;;5051228;28;20044;-73
2022/03/09 12:49:18;;;;;;;9.57;8.43;;;16.50;40.60;;;;;;5051154;28;20036;-72